Time;durP1;ratioP1;P1;durP2;ratioP2;P2;SDS_P1;SDS_P2;PMS_P1;PMS_P2;Temp;Humidity;BMP_temperature;BMP_pressure;BME280_temperature;BME280_humidity;BME280_pressure;Samples;Min_cycle;Max_cycle;Signal;HPM_P1;HPM_P2
2021/12/12 00:01:19;;;;;;;6.20;3.67;;;3.40;94.80;;;;;;4947696;28;20205;-87
2021/12/12 00:03:52;;;;;;;6.80;4.17;;;3.40;94.60;;;;;;4946018;28;20302;-87
2021/12/12 00:06:29;;;;;;;5.30;3.40;;;3.40;94.30;;;;;;4934098;28;20293;-87
2021/12/12 00:08:59;;;;;;;4.83;3.50;;;3.40;94.20;;;;;;4935120;28;20209;-87
2021/12/12 00:11:31;;;;;;;4.40;3.30;;;3.40;94.00;;;;;;4935969;28;20487;-87
2021/12/12 00:14:03;;;;;;;6.93;3.60;;;3.40;93.20;;;;;;4999233;28;20229;-87
2021/12/12 00:16:29;;;;;;;5.50;3.73;;;3.40;93.70;;;;;;4934031;28;20759;-88
2021/12/12 00:18:56;;;;;;;6.47;3.57;;;3.30;93.70;;;;;;4938450;28;20279;-87
2021/12/12 00:21:26;;;;;;;9.57;4.00;;;3.30;93.10;;;;;;4934832;28;20217;-87
2021/12/12 00:23:52;;;;;;;7.10;3.60;;;3.30;92.50;;;;;;4933763;28;20307;-87
2021/12/12 00:26:18;;;;;;;7.17;3.60;;;3.30;92.20;;;;;;4941606;28;20706;-87
2021/12/12 00:28:44;;;;;;;6.83;3.07;;;3.30;91.80;;;;;;4935242;28;20232;-87
2021/12/12 00:31:14;;;;;;;7.03;3.70;;;3.30;92.20;;;;;;4939122;28;20215;-87
2021/12/12 00:33:43;;;;;;;7.23;3.57;;;3.30;92.10;;;;;;4933301;28;20207;-87
2021/12/12 00:36:11;;;;;;;6.30;3.27;;;3.20;92.70;;;;;;4919985;28;20223;-87
2021/12/12 00:38:37;;;;;;;4.70;3.30;;;3.00;94.00;;;;;;4946823;28;20202;-87
2021/12/12 00:41:09;;;;;;;6.83;3.47;;;3.00;94.40;;;;;;4922268;28;20278;-87
2021/12/12 00:43:41;;;;;;;6.17;3.00;;;3.00;94.70;;;;;;4924969;28;20315;-87
2021/12/12 00:46:09;;;;;;;9.67;3.20;;;3.00;94.80;;;;;;4933443;29;20184;-87
2021/12/12 00:48:36;;;;;;;4.93;3.30;;;3.00;94.70;;;;;;4940085;28;20263;-87
2021/12/12 00:51:08;;;;;;;6.60;3.40;;;3.00;94.90;;;;;;4940017;28;20236;-87
2021/12/12 00:53:34;;;;;;;6.90;3.20;;;3.00;95.20;;;;;;4935323;28;20200;-87
2021/12/12 00:56:00;;;;;;;5.37;3.17;;;3.00;94.70;;;;;;4932983;28;20594;-87
2021/12/12 00:58:27;;;;;;;7.43;3.50;;;3.10;94.40;;;;;;4936429;28;20196;-87
2021/12/12 01:00:59;;;;;;;5.03;2.90;;;3.10;94.50;;;;;;4936694;28;20192;-87
2021/12/12 01:03:29;;;;;;;9.50;4.17;;;3.10;94.50;;;;;;4929654;28;20741;-87
2021/12/12 01:05:57;;;;;;;7.80;3.60;;;3.10;94.20;;;;;;4936400;28;20216;-87
2021/12/12 01:08:23;;;;;;;5.47;2.90;;;3.20;94.10;;;;;;4937149;28;20208;-87
2021/12/12 01:10:55;;;;;;;5.30;2.93;;;3.20;94.30;;;;;;4937668;28;20238;-88
2021/12/12 01:13:22;;;;;;;3.30;3.03;;;3.20;93.90;;;;;;4949102;28;20189;-88
2021/12/12 01:16:06;;;;;;;4.47;3.00;;;3.30;93.40;;;;;;4938502;28;20216;-88
2021/12/12 01:18:38;;;;;;;7.93;3.50;;;3.30;92.70;;;;;;4936444;29;20207;-88
2021/12/12 01:21:14;;;;;;;9.47;4.63;;;3.20;93.30;;;;;;4973976;28;20195;-88
2021/12/12 01:24:13;;;;;;;6.93;4.50;;;3.20;94.30;;;;;;4955864;28;20195;-88
2021/12/12 01:26:41;;;;;;;6.70;4.53;;;3.10;95.70;;;;;;4955476;28;20180;-88
2021/12/12 01:29:07;;;;;;;6.13;4.80;;;3.00;97.20;;;;;;4939809;29;20188;-88
2021/12/12 01:31:36;;;;;;;10.80;5.37;;;3.00;97.50;;;;;;4928397;28;20304;-88
2021/12/12 01:34:14;;;;;;;9.33;5.27;;;2.90;98.40;;;;;;4947966;28;20278;-88
2021/12/12 01:39:28;;;;;;;7.27;5.27;;;2.80;98.30;;;;;;4939119;28;20179;-88
2021/12/12 01:42:06;;;;;;;8.27;5.53;;;2.90;99.00;;;;;;4946329;28;20338;-88
2021/12/12 01:44:57;;;;;;;8.90;4.90;;;2.90;98.80;;;;;;4947232;28;20212;-88
2021/12/12 01:47:31;;;;;;;9.30;5.53;;;2.90;98.50;;;;;;4938069;28;20211;-88
2021/12/12 01:50:02;;;;;;;10.03;5.07;;;2.90;98.90;;;;;;4954087;28;20179;-88
2021/12/12 01:52:29;;;;;;;7.07;4.90;;;2.80;99.30;;;;;;4968004;28;20181;-89
2021/12/12 01:55:11;;;;;;;6.00;4.80;;;2.80;99.60;;;;;;4962144;28;20200;-89
2021/12/12 01:57:39;;;;;;;6.97;4.67;;;2.90;99.90;;;;;;5040954;28;20172;-88
2021/12/12 02:00:20;;;;;;;10.03;5.07;;;3.00;99.70;;;;;;4956972;29;20255;-89
2021/12/12 02:02:46;;;;;;;10.20;5.47;;;3.00;99.70;;;;;;4959936;28;20192;-88
2021/12/12 02:05:16;;;;;;;9.77;4.97;;;3.00;99.90;;;;;;4943986;28;20231;-88
2021/12/12 02:07:45;;;;;;;7.77;5.47;;;3.00;99.90;;;;;;4922921;28;20555;-88
2021/12/12 02:10:18;;;;;;;8.30;5.40;;;3.00;99.50;;;;;;4944724;28;20729;-88
2021/12/12 02:12:45;;;;;;;8.60;4.37;;;2.90;99.60;;;;;;4932820;28;20203;-88
2021/12/12 02:15:13;;;;;;;6.67;4.77;;;2.90;99.50;;;;;;4944094;28;20282;-88
2021/12/12 02:17:44;;;;;;;8.13;5.00;;;2.90;99.40;;;;;;4939871;29;20196;-88
2021/12/12 02:20:34;;;;;;;8.03;4.20;;;2.90;98.90;;;;;;4943306;28;20265;-88
2021/12/12 02:23:29;;;;;;;7.77;4.57;;;2.90;99.40;;;;;;4955502;28;20232;-88
2021/12/12 02:37:00;;;;;;;8.67;4.00;;;3.30;97.70;;;;;;4960225;28;20204;-88
2021/12/12 02:39:26;;;;;;;7.97;4.53;;;3.40;97.70;;;;;;4949669;28;20223;-88
2021/12/12 02:41:57;;;;;;;6.37;4.13;;;3.50;97.20;;;;;;4956375;28;20200;-88
2021/12/12 02:44:28;;;;;;;6.40;4.10;;;3.60;96.80;;;;;;4943408;28;20733;-88
2021/12/12 02:46:58;;;;;;;4.83;4.33;;;3.60;96.90;;;;;;4943828;28;20193;-88
2021/12/12 02:49:41;;;;;;;5.97;3.63;;;3.70;97.00;;;;;;5004481;28;20184;-88
2021/12/12 02:52:11;;;;;;;6.50;4.37;;;3.50;97.20;;;;;;4945282;28;20195;-88
2021/12/12 02:54:39;;;;;;;6.47;4.10;;;3.50;96.90;;;;;;4960900;28;20227;-88
2021/12/12 02:57:06;;;;;;;9.53;4.80;;;3.50;98.10;;;;;;5037008;28;20225;-88
2021/12/12 02:59:33;;;;;;;7.03;5.00;;;3.40;97.00;;;;;;4942866;28;20230;-88
2021/12/12 03:02:04;;;;;;;6.10;5.00;;;3.30;97.70;;;;;;4948642;28;20593;-88
2021/12/12 03:04:31;;;;;;;7.03;4.73;;;3.20;97.80;;;;;;4937479;28;20227;-88
2021/12/12 03:06:58;;;;;;;6.33;4.40;;;3.10;98.90;;;;;;4948111;28;20197;-88
2021/12/12 03:09:37;;;;;;;5.70;4.50;;;3.00;99.30;;;;;;4939279;28;20211;-88
2021/12/12 03:12:07;;;;;;;7.27;4.43;;;3.00;99.40;;;;;;4936592;28;20211;-88
2021/12/12 03:14:34;;;;;;;9.80;4.73;;;3.00;98.90;;;;;;4936242;28;20243;-88
2021/12/12 03:17:04;;;;;;;7.83;5.13;;;3.10;99.00;;;;;;4937131;28;20226;-88
2021/12/12 03:19:30;;;;;;;6.53;5.00;;;3.00;99.60;;;;;;4935017;28;20196;-88
2021/12/12 03:21:56;;;;;;;6.70;4.73;;;2.90;99.90;;;;;;4940598;28;20238;-88
2021/12/12 03:24:25;;;;;;;8.50;5.03;;;2.90;99.90;;;;;;4951419;28;20228;-88
2021/12/12 03:26:58;;;;;;;8.70;4.90;;;2.90;99.90;;;;;;4968345;28;20670;-88
2021/12/12 03:29:25;;;;;;;7.80;5.27;;;2.90;99.90;;;;;;4944204;28;20275;-88
2021/12/12 03:32:00;;;;;;;8.80;5.20;;;2.90;99.90;;;;;;4943779;28;20203;-88
2021/12/12 03:34:29;;;;;;;7.87;5.17;;;3.00;99.90;;;;;;4949114;28;20298;-88
2021/12/12 03:36:55;;;;;;;7.80;5.10;;;3.00;99.90;;;;;;4943363;28;20230;-88
2021/12/12 03:39:28;;;;;;;7.83;5.40;;;3.00;99.90;;;;;;4954527;28;20467;-88
2021/12/12 03:41:57;;;;;;;6.47;4.97;;;3.10;99.90;;;;;;4942912;28;20192;-88
2021/12/12 03:44:26;;;;;;;7.07;4.90;;;3.10;99.90;;;;;;4948039;28;20227;-88
2021/12/12 03:46:55;;;;;;;7.67;5.43;;;3.20;99.90;;;;;;4934737;28;20841;-88
2021/12/12 03:49:22;;;;;;;11.60;5.50;;;3.30;99.50;;;;;;4937220;29;20655;-88
2021/12/12 03:51:49;;;;;;;8.83;5.97;;;3.40;98.20;;;;;;4988562;28;20189;-88
2021/12/12 03:54:17;;;;;;;9.20;6.27;;;3.40;98.10;;;;;;4982281;28;20219;-88
2021/12/12 03:56:46;;;;;;;6.83;5.20;;;3.20;99.20;;;;;;4954155;28;20569;-87
2021/12/12 03:59:12;;;;;;;7.67;5.10;;;3.20;99.80;;;;;;4936325;28;20216;-87
2021/12/12 04:01:43;;;;;;;6.13;5.50;;;3.20;99.70;;;;;;4914129;28;20754;-87
2021/12/12 04:04:16;;;;;;;8.60;6.60;;;3.10;99.90;;;;;;4997407;28;20326;-87
2021/12/12 04:06:42;;;;;;;8.43;6.53;;;3.10;99.90;;;;;;4948609;28;20248;-87
2021/12/12 04:09:10;;;;;;;8.60;6.67;;;3.10;99.90;;;;;;5029033;28;20201;-87
2021/12/12 04:11:46;;;;;;;10.13;7.30;;;2.90;99.90;;;;;;4989918;28;20241;-87
2021/12/12 04:14:13;;;;;;;11.90;8.10;;;2.80;99.90;;;;;;4955569;28;20192;-87
2021/12/12 04:16:42;;;;;;;10.47;7.67;;;2.70;99.90;;;;;;4939063;29;20208;-87
2021/12/12 04:19:08;;;;;;;10.27;8.03;;;2.60;99.90;;;;;;4941805;28;20197;-87
2021/12/12 04:21:36;;;;;;;9.33;8.07;;;2.60;99.90;;;;;;4935452;28;20208;-87
2021/12/12 04:24:02;;;;;;;10.47;7.80;;;2.50;99.90;;;;;;4918203;28;20232;-87
2021/12/12 04:26:36;;;;;;;11.50;7.77;;;2.50;99.90;;;;;;4934816;28;20251;-87
2021/12/12 04:29:13;;;;;;;12.00;7.87;;;2.50;99.90;;;;;;4936456;28;20195;-87
2021/12/12 04:31:42;;;;;;;11.33;7.07;;;2.40;99.90;;;;;;4938495;28;20213;-86
2021/12/12 04:34:09;;;;;;;9.17;7.20;;;2.40;99.90;;;;;;4935675;29;20239;-87
2021/12/12 04:36:41;;;;;;;10.80;7.40;;;2.30;99.90;;;;;;4976920;28;20236;-87
2021/12/12 04:39:12;;;;;;;9.63;7.30;;;2.30;99.90;;;;;;5019605;28;20195;-86
2021/12/12 04:41:40;;;;;;;8.37;6.93;;;2.30;99.90;;;;;;4930422;28;20193;-88
2021/12/12 04:44:06;;;;;;;10.00;7.20;;;2.30;99.90;;;;;;4940734;28;20228;-87
2021/12/12 04:49:55;;;;;;;8.07;6.30;;;2.30;99.90;;;;;;4950094;28;20207;-86
2021/12/12 04:52:34;;;;;;;9.20;6.20;;;2.20;99.90;;;;;;4958771;28;20184;-87
2021/12/12 04:55:15;;;;;;;8.00;6.13;;;2.40;99.90;;;;;;4938269;28;20224;-87
2021/12/12 04:58:13;;;;;;;7.27;6.07;;;2.30;99.90;;;;;;4967556;28;20242;-87
2021/12/12 05:00:49;;;;;;;7.80;5.93;;;2.30;99.90;;;;;;4933551;28;20626;-87
2021/12/12 05:03:28;;;;;;;6.63;5.23;;;2.30;99.90;;;;;;4934142;28;20204;-87
2021/12/12 05:05:59;;;;;;;7.90;6.00;;;2.30;99.90;;;;;;4935609;28;20579;-87
2021/12/12 05:08:34;;;;;;;5.80;5.20;;;2.30;99.90;;;;;;4936000;28;20239;-87
2021/12/12 05:11:30;;;;;;;7.13;5.17;;;2.30;99.90;;;;;;4934425;28;20261;-87
2021/12/12 05:14:04;;;;;;;5.63;5.07;;;2.30;99.90;;;;;;4947315;28;20204;-87
2021/12/12 05:16:34;;;;;;;7.30;5.63;;;2.30;99.90;;;;;;4950858;28;20338;-87
2021/12/12 05:19:12;;;;;;;6.83;5.73;;;2.30;99.90;;;;;;4941569;28;20211;-87
2021/12/12 05:21:45;;;;;;;7.77;5.13;;;2.20;99.90;;;;;;4940103;28;20204;-87
2021/12/12 05:24:12;;;;;;;6.53;4.83;;;2.20;99.90;;;;;;4946837;28;20219;-87
2021/12/12 05:26:49;;;;;;;5.87;5.17;;;2.30;99.90;;;;;;4938282;28;20200;-87
2021/12/12 05:29:27;;;;;;;8.50;5.00;;;2.50;99.90;;;;;;4927369;28;20679;-87
2021/12/12 05:31:55;;;;;;;12.03;9.33;;;2.70;99.90;;;;;;4935504;28;20199;-87
2021/12/12 05:34:26;;;;;;;7.37;5.57;;;2.80;99.90;;;;;;4921517;28;20220;-87
2021/12/12 05:36:53;;;;;;;7.37;4.93;;;2.80;99.60;;;;;;4937200;29;20208;-87
2021/12/12 05:39:20;;;;;;;7.77;4.90;;;2.80;98.80;;;;;;4934901;28;20196;-87
2021/12/12 05:41:48;;;;;;;7.93;4.70;;;2.80;98.60;;;;;;4919160;28;20211;-87
2021/12/12 05:44:14;;;;;;;26.00;19.73;;;2.80;98.90;;;;;;4939598;28;20228;-87
2021/12/12 05:46:41;;;;;;;6.67;5.33;;;2.90;98.60;;;;;;4946731;28;20200;-87
2021/12/12 05:49:07;;;;;;;8.57;5.97;;;3.00;98.70;;;;;;4938211;28;20196;-87
2021/12/12 05:51:34;;;;;;;7.90;5.67;;;3.00;98.80;;;;;;4937515;28;20207;-87
2021/12/12 05:54:01;;;;;;;6.50;5.80;;;3.00;98.80;;;;;;4940610;28;20366;-88
2021/12/12 05:56:34;;;;;;;6.27;4.97;;;3.10;98.50;;;;;;4945667;28;20204;-87
2021/12/12 05:59:01;;;;;;;5.97;5.30;;;3.10;98.40;;;;;;4943513;28;20205;-88
2021/12/12 06:01:29;;;;;;;6.13;4.50;;;3.10;98.70;;;;;;4943930;28;20250;-87
2021/12/12 06:03:55;;;;;;;7.30;4.70;;;3.10;98.10;;;;;;4955049;28;20223;-88
2021/12/12 06:06:26;;;;;;;7.57;4.77;;;3.20;97.50;;;;;;4963208;28;20193;-87
2021/12/12 06:08:56;;;;;;;8.93;5.13;;;3.20;96.30;;;;;;4942559;28;20208;-87
2021/12/12 06:11:24;;;;;;;5.57;4.80;;;3.20;96.20;;;;;;4928688;28;20216;-87
2021/12/12 06:13:50;;;;;;;8.10;4.87;;;3.20;96.30;;;;;;4937834;28;20287;-87
2021/12/12 06:16:19;;;;;;;6.63;4.80;;;3.20;96.50;;;;;;4937048;28;20193;-88
2021/12/12 06:18:47;;;;;;;5.43;4.80;;;3.20;97.00;;;;;;4938060;28;20205;-87
2021/12/12 06:21:13;;;;;;;6.93;4.80;;;3.10;97.10;;;;;;4961918;28;20185;-87
2021/12/12 06:23:39;;;;;;;5.13;4.60;;;3.00;97.50;;;;;;4951500;28;20239;-88
2021/12/12 06:26:05;;;;;;;7.63;4.80;;;3.10;97.90;;;;;;4950209;28;20212;-88
2021/12/12 06:28:34;;;;;;;5.53;4.40;;;3.00;96.80;;;;;;4969810;28;20208;-88
2021/12/12 06:31:00;;;;;;;5.73;4.23;;;2.90;96.90;;;;;;4961116;28;20265;-87
2021/12/12 06:33:27;;;;;;;5.00;4.13;;;2.80;97.70;;;;;;4927282;28;20254;-88
2021/12/12 06:35:55;;;;;;;7.27;4.30;;;2.80;98.00;;;;;;4935050;28;20589;-88
2021/12/12 06:38:22;;;;;;;9.10;4.67;;;2.70;97.90;;;;;;4934629;28;20192;-87
2021/12/12 06:40:49;;;;;;;7.30;4.53;;;2.60;99.20;;;;;;4905327;28;20269;-87
2021/12/12 06:43:18;;;;;;;5.27;4.63;;;2.60;99.80;;;;;;4940008;29;20208;-87
2021/12/12 06:45:45;;;;;;;7.30;4.20;;;2.60;99.40;;;;;;4921005;28;20304;-88
2021/12/12 06:48:13;;;;;;;8.43;4.50;;;2.50;99.90;;;;;;4924832;28;20220;-87
2021/12/12 06:50:42;;;;;;;5.07;4.27;;;2.40;99.90;;;;;;4937197;29;20246;-87
2021/12/12 06:53:08;;;;;;;8.40;4.37;;;2.30;99.90;;;;;;4937439;28;20211;-87
2021/12/12 06:55:36;;;;;;;7.00;4.77;;;2.50;99.90;;;;;;4946482;28;20224;-87
2021/12/12 06:58:06;;;;;;;8.80;5.00;;;2.70;99.90;;;;;;4938886;28;20196;-87
2021/12/12 07:00:34;;;;;;;9.40;5.40;;;2.70;99.80;;;;;;4943663;28;20234;-87
2021/12/12 07:03:00;;;;;;;5.87;5.27;;;2.50;99.90;;;;;;4939054;28;20215;-87
2021/12/12 07:05:29;;;;;;;6.77;4.87;;;2.40;99.90;;;;;;4938742;28;20209;-88
2021/12/12 07:08:00;;;;;;;6.47;4.70;;;2.40;99.90;;;;;;4938340;28;20246;-87
2021/12/12 07:10:29;;;;;;;7.03;4.57;;;2.30;99.90;;;;;;4939509;28;20192;-87
2021/12/12 07:12:56;;;;;;;6.67;4.77;;;2.40;99.90;;;;;;4921353;28;20196;-86
2021/12/12 07:15:36;;;;;;;5.10;4.60;;;2.30;99.90;;;;;;4957219;28;20209;-87
2021/12/12 07:18:08;;;;;;;8.10;4.80;;;2.30;99.90;;;;;;4938323;28;20199;-86
2021/12/12 07:20:34;;;;;;;6.43;4.50;;;2.30;99.90;;;;;;4947805;28;20192;-86
2021/12/12 07:23:07;;;;;;;9.00;5.10;;;2.30;99.90;;;;;;4956871;28;20200;-86
2021/12/12 07:25:38;;;;;;;7.43;4.87;;;2.30;99.90;;;;;;4949953;28;20677;-87
2021/12/12 07:28:05;;;;;;;7.67;5.10;;;2.30;99.90;;;;;;4916874;28;20212;-87
2021/12/12 07:30:32;;;;;;;8.17;5.13;;;2.40;99.90;;;;;;4956436;28;20195;-86
2021/12/12 07:32:58;;;;;;;8.00;5.40;;;2.50;99.90;;;;;;4959067;28;20211;-86
2021/12/12 07:35:25;;;;;;;7.17;6.10;;;2.60;99.90;;;;;;4940599;28;20235;-86
2021/12/12 07:37:52;;;;;;;8.60;7.43;;;2.60;99.90;;;;;;4957839;28;20297;-86
2021/12/12 07:40:20;;;;;;;10.80;8.00;;;2.60;99.90;;;;;;4944236;28;20291;-86
2021/12/12 07:42:48;;;;;;;12.20;7.43;;;2.60;99.90;;;;;;4921075;28;20207;-86
2021/12/12 07:45:15;;;;;;;11.80;6.53;;;2.60;99.90;;;;;;4963133;28;20204;-86
2021/12/12 07:47:42;;;;;;;9.97;5.70;;;2.50;99.90;;;;;;4951963;28;20203;-86
2021/12/12 07:50:11;;;;;;;6.67;5.30;;;2.60;99.90;;;;;;4942392;28;20192;-86
2021/12/12 07:52:37;;;;;;;10.40;5.40;;;2.60;99.90;;;;;;4931400;29;20195;-86
2021/12/12 07:55:04;;;;;;;7.87;5.70;;;2.50;99.90;;;;;;4954788;28;20497;-86
2021/12/12 07:57:30;;;;;;;8.73;5.67;;;2.50;99.90;;;;;;4945437;28;20192;-86
2021/12/12 07:59:58;;;;;;;10.00;5.53;;;2.50;99.90;;;;;;4933601;28;20184;-86
2021/12/12 08:02:24;;;;;;;8.07;5.80;;;2.50;99.90;;;;;;4942279;28;20645;-86
2021/12/12 08:04:51;;;;;;;8.50;5.33;;;2.50;99.90;;;;;;5003759;28;20776;-86
2021/12/12 08:07:21;;;;;;;7.87;5.00;;;2.50;99.90;;;;;;4940496;28;20195;-86
2021/12/12 08:09:48;;;;;;;7.60;5.67;;;2.60;99.90;;;;;;4939038;28;20185;-86
2021/12/12 08:12:17;;;;;;;7.57;4.80;;;2.70;99.90;;;;;;4938985;28;20192;-86
2021/12/12 08:14:44;;;;;;;8.07;4.80;;;2.80;99.90;;;;;;4940920;28;20236;-86
2021/12/12 08:17:11;;;;;;;7.70;4.13;;;2.80;99.90;;;;;;4936907;29;20231;-86
2021/12/12 08:19:37;;;;;;;6.07;3.90;;;3.00;99.70;;;;;;4938388;28;20212;-86
2021/12/12 08:22:07;;;;;;;7.60;4.43;;;3.10;98.40;;;;;;4933942;28;20216;-86
2021/12/12 08:24:36;;;;;;;5.27;4.10;;;3.00;99.00;;;;;;4940888;28;20224;-86
2021/12/12 08:27:04;;;;;;;8.27;3.93;;;3.10;98.30;;;;;;4944015;28;20944;-86
2021/12/12 08:29:31;;;;;;;5.87;3.83;;;3.00;98.10;;;;;;4913705;28;20193;-86
2021/12/12 08:31:57;;;;;;;4.00;3.60;;;3.00;99.30;;;;;;4937735;29;20196;-86
2021/12/12 08:34:25;;;;;;;5.83;4.13;;;3.10;98.00;;;;;;4939198;28;20227;-86
2021/12/12 08:36:53;;;;;;;5.00;4.47;;;3.20;97.60;;;;;;4948022;28;20231;-87
2021/12/12 08:39:20;;;;;;;5.13;4.10;;;3.20;97.60;;;;;;4935294;28;20219;-86
2021/12/12 08:41:48;;;;;;;7.87;3.67;;;3.20;97.10;;;;;;4932103;28;20200;-86
2021/12/12 08:44:15;;;;;;;4.73;3.53;;;3.20;97.10;;;;;;4944057;28;20240;-86
2021/12/12 08:46:46;;;;;;;7.67;4.27;;;3.30;97.20;;;;;;4972667;28;20189;-86
2021/12/12 08:49:14;;;;;;;6.20;4.10;;;3.40;97.20;;;;;;4943352;28;20207;-86
2021/12/12 08:52:18;;;;;;;7.17;4.00;;;3.30;96.60;;;;;;4933349;28;20204;-86
2021/12/12 08:54:46;;;;;;;4.97;3.90;;;3.40;96.70;;;;;;4929441;28;20231;-86
2021/12/12 08:57:34;;;;;;;5.17;3.43;;;3.40;96.50;;;;;;4936735;29;20860;-86
2021/12/12 09:00:05;;;;;;;6.57;3.90;;;3.50;96.20;;;;;;4937298;29;20188;-86
2021/12/12 09:02:31;;;;;;;4.10;3.30;;;3.80;93.70;;;;;;4945464;28;20215;-86
2021/12/12 09:05:05;;;;;;;5.47;3.20;;;3.80;93.70;;;;;;4925323;28;20232;-86
2021/12/12 09:07:44;;;;;;;6.43;3.37;;;4.00;91.40;;;;;;4937376;28;20203;-86
2021/12/12 09:10:21;;;;;;;4.53;3.20;;;4.00;92.70;;;;;;4937414;28;20185;-86
2021/12/12 09:13:12;;;;;;;3.00;2.80;;;4.20;92.10;;;;;;5002453;28;20223;-86
2021/12/12 09:15:46;;;;;;;5.53;3.90;;;4.20;90.80;;;;;;4946211;28;20236;-86
2021/12/12 09:18:18;;;;;;;4.57;2.97;;;4.20;91.70;;;;;;4937346;28;20215;-86
2021/12/12 09:20:53;;;;;;;3.93;2.70;;;4.10;92.20;;;;;;4939139;29;20258;-86
2021/12/12 09:23:34;;;;;;;4.63;2.90;;;4.20;91.60;;;;;;4934658;28;20234;-86
2021/12/12 09:26:04;;;;;;;4.13;3.03;;;4.30;91.30;;;;;;4922904;28;20730;-86
2021/12/12 09:28:41;;;;;;;4.10;2.80;;;4.30;91.30;;;;;;4943762;28;20196;-86
2021/12/12 09:31:12;;;;;;;5.17;3.07;;;4.40;90.00;;;;;;4938736;28;20192;-86
2021/12/12 09:33:46;;;;;;;3.80;2.50;;;4.30;90.20;;;;;;4937305;28;20196;-86
2021/12/12 09:36:33;;;;;;;3.40;2.80;;;4.20;91.40;;;;;;4928481;28;20199;-86
2021/12/12 09:39:11;;;;;;;4.20;3.13;;;4.20;90.40;;;;;;4940165;28;20299;-86
2021/12/12 09:42:01;;;;;;;2.90;2.50;;;4.40;89.70;;;;;;4936150;29;20203;-86
2021/12/12 09:44:43;;;;;;;5.23;2.63;;;4.50;89.60;;;;;;4934949;28;20228;-87
2021/12/12 09:48:26;;;;;;;4.47;2.70;;;4.50;90.00;;;;;;4936169;28;20737;-86
2021/12/12 09:51:14;;;;;;;4.60;3.20;;;4.60;88.90;;;;;;4941229;28;21051;-86
2021/12/12 09:54:05;;;;;;;5.50;3.43;;;4.60;89.00;;;;;;4943508;28;20200;-86
2021/12/12 09:56:36;;;;;;;6.00;2.93;;;4.60;89.30;;;;;;4941128;28;20195;-86
2021/12/12 09:59:14;;;;;;;6.00;3.20;;;4.50;89.20;;;;;;5007139;28;20544;-86
2021/12/12 10:01:46;;;;;;;6.13;3.10;;;4.60;89.00;;;;;;4944052;28;20198;-86
2021/12/12 10:04:31;;;;;;;5.33;3.20;;;4.80;89.40;;;;;;4928080;28;20227;-86
2021/12/12 10:07:06;;;;;;;5.70;2.93;;;4.70;88.80;;;;;;4960785;28;20244;-86
2021/12/12 10:10:00;;;;;;;4.20;2.80;;;4.70;88.90;;;;;;4942802;28;20287;-86
2021/12/12 10:12:38;;;;;;;4.20;2.67;;;4.70;89.20;;;;;;4946672;28;20206;-86
2021/12/12 10:15:20;;;;;;;4.47;2.83;;;4.60;89.50;;;;;;4951896;28;20215;-87
2021/12/12 10:18:05;;;;;;;3.07;2.50;;;4.70;89.50;;;;;;4955476;28;20184;-86
2021/12/12 10:20:49;;;;;;;5.93;2.87;;;4.70;88.50;;;;;;4950329;28;20184;-82
2021/12/12 10:23:36;;;;;;;6.33;3.10;;;4.60;89.20;;;;;;4953979;28;20208;-86
2021/12/12 10:26:08;;;;;;;4.23;2.70;;;4.70;89.00;;;;;;4946391;28;20232;-86
2021/12/12 10:28:42;;;;;;;4.43;2.97;;;4.70;89.20;;;;;;4941638;28;20256;-87
2021/12/12 10:31:24;;;;;;;4.63;2.50;;;4.70;87.70;;;;;;4936268;28;20190;-87
2021/12/12 10:34:04;;;;;;;4.90;2.67;;;4.80;87.20;;;;;;4941307;28;20284;-87
2021/12/12 10:36:44;;;;;;;3.83;2.70;;;4.60;88.60;;;;;;4956530;28;20256;-87
2021/12/12 10:39:20;;;;;;;3.27;2.70;;;4.60;88.80;;;;;;4951582;28;20192;-87
2021/12/12 10:41:56;;;;;;;4.43;2.50;;;4.80;88.40;;;;;;4972569;28;20277;-86
2021/12/12 10:44:54;;;;;;;3.50;2.43;;;4.90;87.00;;;;;;4943172;29;20261;-88
2021/12/12 10:47:38;;;;;;;4.50;2.80;;;5.00;86.00;;;;;;4936795;28;20212;-88
2021/12/12 10:50:13;;;;;;;2.87;2.33;;;5.00;88.00;;;;;;4941760;28;20204;-88
2021/12/12 10:52:50;;;;;;;4.63;2.70;;;4.80;87.10;;;;;;4947564;28;20246;-88
2021/12/12 10:55:22;;;;;;;5.00;2.87;;;4.90;86.80;;;;;;4929521;29;20219;-87
2021/12/12 10:58:06;;;;;;;2.93;2.40;;;5.00;86.10;;;;;;4953252;28;20208;-88
2021/12/12 11:00:37;;;;;;;4.23;2.53;;;4.90;87.00;;;;;;4954813;28;20186;-88
2021/12/12 11:03:08;;;;;;;5.47;2.87;;;4.90;87.90;;;;;;4942222;28;20203;-86
2021/12/12 11:05:39;;;;;;;4.27;2.50;;;4.90;87.20;;;;;;4923309;28;20366;-86
2021/12/12 11:08:14;;;;;;;6.07;2.57;;;4.90;86.30;;;;;;4943091;28;20235;-86
2021/12/12 11:10:43;;;;;;;4.77;3.50;;;4.90;87.30;;;;;;4921258;28;20203;-87
2021/12/12 11:13:25;;;;;;;7.97;2.67;;;4.80;88.50;;;;;;4938356;28;20650;-87
2021/12/12 11:16:02;;;;;;;3.33;2.40;;;5.00;87.00;;;;;;4935473;28;20635;-87
2021/12/12 11:18:32;;;;;;;5.60;2.97;;;5.00;86.70;;;;;;4936726;28;20219;-86
2021/12/12 11:21:26;;;;;;;3.63;2.43;;;5.00;86.40;;;;;;4935805;28;20267;-87
2021/12/12 11:24:00;;;;;;;3.20;2.90;;;4.90;87.90;;;;;;4953532;28;20227;-86
2021/12/12 11:26:40;;;;;;;3.57;2.50;;;5.00;86.60;;;;;;4957130;28;20193;-86
2021/12/12 11:29:17;;;;;;;3.73;2.57;;;5.10;86.40;;;;;;4937182;28;20208;-86
2021/12/12 11:31:56;;;;;;;3.33;2.90;;;5.10;85.30;;;;;;4925909;28;20198;-86
2021/12/12 11:34:24;;;;;;;3.80;2.87;;;5.10;86.40;;;;;;4953447;28;20215;-87
2021/12/12 11:37:13;;;;;;;2.80;2.47;;;5.10;87.60;;;;;;4907380;28;20196;-86
2021/12/12 11:40:19;;;;;;;4.77;3.37;;;5.10;86.20;;;;;;4956070;28;20208;-86
2021/12/12 11:43:11;;;;;;;4.43;2.83;;;5.20;86.00;;;;;;4949729;28;20207;-86
2021/12/12 11:45:41;;;;;;;5.10;2.93;;;5.20;86.20;;;;;;4937786;28;20212;-87
2021/12/12 11:48:22;;;;;;;3.93;2.70;;;5.10;85.10;;;;;;4936776;28;20327;-87
2021/12/12 11:51:14;;;;;;;3.83;2.90;;;5.00;86.10;;;;;;4938783;28;20198;-87
2021/12/12 11:53:50;;;;;;;3.23;2.70;;;5.00;87.00;;;;;;4934203;28;20241;-86
2021/12/12 11:56:18;;;;;;;5.53;2.80;;;5.10;87.80;;;;;;4934936;28;20199;-86
2021/12/12 11:58:59;;;;;;;4.13;3.50;;;5.10;86.90;;;;;;4966485;28;20200;-86
2021/12/12 12:01:39;;;;;;;4.27;2.90;;;5.30;86.30;;;;;;4940224;28;20192;-86
2021/12/12 12:04:39;;;;;;;4.30;2.87;;;5.30;85.20;;;;;;4934595;28;20729;-86
2021/12/12 12:07:19;;;;;;;3.70;2.93;;;5.20;85.40;;;;;;4932037;28;20205;-86
2021/12/12 12:10:03;;;;;;;3.30;3.00;;;5.20;86.30;;;;;;4913874;28;20242;-86
2021/12/12 12:12:58;;;;;;;5.20;3.67;;;5.20;85.80;;;;;;4933067;28;20200;-86
2021/12/12 12:15:47;;;;;;;4.07;3.10;;;5.40;84.40;;;;;;4968883;28;20225;-86
2021/12/12 12:18:33;;;;;;;3.67;2.83;;;5.50;83.90;;;;;;4931284;28;20197;-86
2021/12/12 12:21:24;;;;;;;3.30;2.80;;;5.50;85.40;;;;;;4935318;28;20199;-87
2021/12/12 12:26:51;;;;;;;6.23;3.50;;;5.70;84.10;;;;;;4941363;28;20212;-87
2021/12/12 12:29:33;;;;;;;3.17;2.80;;;5.80;84.90;;;;;;4932238;28;20264;-87
2021/12/12 12:32:07;;;;;;;4.40;2.87;;;5.80;83.90;;;;;;4948735;28;20275;-86
2021/12/12 12:35:06;;;;;;;3.77;3.00;;;5.70;84.20;;;;;;4936041;28;20257;-88
2021/12/12 12:38:10;;;;;;;3.93;2.93;;;5.70;84.50;;;;;;4924729;28;20279;-87
2021/12/12 12:40:41;;;;;;;4.87;3.40;;;5.50;84.00;;;;;;4941518;28;20604;-87
2021/12/12 12:43:32;;;;;;;5.17;3.57;;;5.60;84.10;;;;;;4945360;28;20211;-86
2021/12/12 12:46:16;;;;;;;3.93;2.97;;;5.50;83.80;;;;;;4935171;28;20261;-87
2021/12/12 12:48:45;;;;;;;2.83;2.63;;;5.60;84.50;;;;;;4930756;28;20246;-87
2021/12/12 12:51:16;;;;;;;3.10;2.77;;;5.70;83.20;;;;;;4966915;28;20188;-88
2021/12/12 12:53:54;;;;;;;3.77;3.00;;;5.60;84.00;;;;;;4965573;28;20207;-88
2021/12/12 12:57:00;;;;;;;4.03;3.00;;;5.60;83.90;;;;;;4948361;28;20196;-87
2021/12/12 12:59:45;;;;;;;3.93;2.93;;;5.70;84.40;;;;;;4956753;28;20187;-87
2021/12/12 13:02:18;;;;;;;3.00;2.70;;;5.50;84.70;;;;;;4966629;28;20286;-88
2021/12/12 13:04:56;;;;;;;3.27;2.80;;;5.60;84.80;;;;;;4938050;28;20251;-87
2021/12/12 13:07:40;;;;;;;3.80;2.40;;;5.70;82.40;;;;;;4951048;28;20223;-86
2021/12/12 13:10:22;;;;;;;5.23;2.50;;;5.70;82.80;;;;;;4943297;28;20192;-87
2021/12/12 13:13:18;;;;;;;4.03;2.80;;;5.50;83.30;;;;;;4953501;28;20204;-88
2021/12/12 13:16:03;;;;;;;5.67;2.60;;;5.60;84.30;;;;;;4936908;28;20208;-88
2021/12/12 13:18:35;;;;;;;5.50;2.67;;;5.70;82.50;;;;;;4961340;29;20180;-88
2021/12/12 13:21:07;;;;;;;2.83;2.30;;;5.60;82.60;;;;;;4960025;28;20671;-88
2021/12/12 13:23:42;;;;;;;4.03;2.50;;;5.70;83.00;;;;;;4949028;28;20776;-87
2021/12/12 13:26:30;;;;;;;2.20;2.00;;;5.70;83.20;;;;;;4949239;29;20211;-87
2021/12/12 13:29:36;;;;;;;3.00;2.70;;;5.70;82.80;;;;;;4948629;28;20198;-87
2021/12/12 13:32:09;;;;;;;2.50;2.30;;;5.80;82.30;;;;;;4960560;28;20710;-87
2021/12/12 13:34:46;;;;;;;2.87;2.20;;;5.80;82.00;;;;;;4960681;28;20211;-88
2021/12/12 13:37:27;;;;;;;3.23;2.40;;;5.80;82.30;;;;;;4947563;28;20191;-88
2021/12/12 13:40:07;;;;;;;4.70;2.80;;;5.80;81.80;;;;;;4941586;29;20184;-87
2021/12/12 13:42:49;;;;;;;3.73;2.40;;;5.80;81.20;;;;;;4945947;28;20219;-87
2021/12/12 13:45:24;;;;;;;4.27;2.73;;;5.80;81.70;;;;;;4944326;28;20231;-87
2021/12/12 13:48:08;;;;;;;3.67;2.43;;;5.80;82.30;;;;;;4966593;28;21207;-87
2021/12/12 13:50:40;;;;;;;4.10;3.00;;;5.70;81.70;;;;;;4945876;28;20188;-88